Terminal Aerodrome Forecast
Issued by NWS Springfield, MO

Home | Current Version | Previous Version | Text Only | Print | Product List | Glossary On
Versions: 1 2 3 4 5 6 7 8 9 10 11 12 13 14 15 16 17 18 19 20 21 22 23
000
FTUS43 KSGF 300500
TAFSGF
TAF
KSGF 300536Z 3006/3106 30006KT P6SM VCSH OVC100
     FM300800 33005KT 4SM BR OVC006
     FM301600 31008KT P6SM OVC008
     FM302100 33010KT P6SM BKN008 OVC015
     FM310200 34005KT 3SM BR OVC007=

USA.gov is the U.S. government's official web portal to all federal, state and local government web resources and services.